23°C Temp
21°C Dewpoint
89% Humidity
Temperature
0 KM/H
MPH
KTS
Calm
Due North

Wind Speed
Clear
Conditions
Pressure 1017.92 (hPa) - 30.06 (in)
Visibility 6.2 (mi) - 10.0 (km)

Current Conditions
UKLI
Location 9(km)
Metar :UKLI 240500Z 00000MPS CAVOK 23/21 Q1018
Thu 24th June 08:00 am

Airport